createdAt,value
2017-11-28T00:00:39.030Z,0.70
2017-11-28T00:03:06.589Z,0.90
2017-11-28T00:05:34.039Z,0.80
2017-11-28T00:08:01.498Z,1.55
2017-11-28T00:10:29.032Z,0.95
2017-11-28T00:12:56.475Z,0.80
2017-11-28T00:15:23.919Z,1.27
2017-11-28T00:17:52.131Z,0.80
2017-11-28T00:20:19.575Z,1.10
2017-11-28T00:22:47.032Z,1.67
2017-11-28T00:25:14.474Z,1.02
2017-11-28T00:27:41.947Z,0.90
2017-11-28T00:30:09.435Z,0.95
2017-11-28T00:32:36.871Z,1.00
2017-11-28T00:35:04.321Z,1.02
2017-11-28T00:37:31.874Z,1.02
2017-11-28T00:39:59.310Z,0.80
2017-11-28T00:42:26.751Z,0.90
2017-11-28T00:44:55.063Z,1.35
2017-11-28T00:47:22.496Z,1.23
2017-11-28T00:49:50.706Z,0.80
2017-11-28T00:52:18.257Z,1.23
2017-11-28T00:54:45.812Z,0.90
2017-11-28T00:57:13.246Z,0.93
2017-11-28T00:59:41.462Z,1.00
2017-11-28T01:02:08.907Z,1.80
2017-11-28T01:04:36.352Z,1.00
2017-11-28T01:07:03.789Z,0.80
2017-11-28T01:09:31.373Z,1.50
2017-11-28T01:11:58.803Z,0.88
2017-11-28T01:14:26.255Z,1.30
2017-11-28T01:16:54.459Z,0.90
2017-11-28T01:19:21.920Z,0.85
2017-11-28T01:21:49.369Z,0.80
2017-11-28T01:24:16.828Z,0.90
2017-11-28T01:26:44.319Z,1.15
2017-11-28T01:29:11.773Z,1.10
2017-11-28T01:31:39.213Z,0.80
2017-11-28T01:34:06.756Z,0.80
2017-11-28T01:36:34.191Z,1.00
2017-11-28T01:39:01.699Z,0.93
2017-11-28T01:41:29.142Z,1.70
2017-11-28T01:43:56.583Z,0.88
2017-11-28T01:46:24.076Z,1.80
2017-11-28T01:48:51.515Z,1.00
2017-11-28T01:51:18.964Z,1.08
2017-11-28T01:53:46.408Z,1.55
2017-11-28T01:56:13.861Z,1.10
2017-11-28T01:58:41.303Z,2.20
2017-11-28T02:01:08.750Z,1.70
2017-11-28T02:03:36.962Z,1.58
2017-11-28T02:06:04.410Z,1.30
2017-11-28T02:08:31.907Z,1.05
2017-11-28T02:10:59.342Z,0.93
2017-11-28T02:13:26.795Z,1.90
2017-11-28T02:15:54.242Z,1.37
2017-11-28T02:18:21.796Z,1.20
2017-11-28T02:20:49.238Z,1.10
2017-11-28T02:23:16.691Z,3.87
2017-11-28T02:25:44.135Z,1.10
2017-11-28T02:28:12.445Z,1.17
2017-11-28T02:30:39.892Z,2.45
2017-11-28T02:33:07.326Z,1.23
2017-11-28T02:35:35.546Z,2.70
2017-11-28T02:38:03.091Z,1.60
2017-11-28T02:40:42.454Z,1.40
2017-11-28T02:43:09.900Z,4.85
2017-11-28T02:45:37.367Z,1.40
2017-11-28T02:48:04.808Z,1.50
2017-11-28T02:50:32.265Z,1.67
2017-11-28T02:52:59.708Z,2.47
2017-11-28T02:55:27.183Z,2.33
2017-11-28T02:58:04.517Z,2.60
2017-11-28T03:00:32.744Z,2.62
2017-11-28T03:03:00.182Z,2.92
2017-11-28T03:05:27.674Z,2.85
2017-11-28T03:07:55.227Z,1.40
2017-11-28T03:10:29.206Z,1.75
2017-11-28T03:13:01.272Z,2.60
2017-11-28T03:15:29.518Z,3.50
2017-11-28T03:17:58.340Z,1.65
2017-11-28T03:20:33.415Z,1.60
2017-11-28T03:23:21.651Z,2.20
2017-11-28T03:25:49.098Z,1.90
2017-11-28T03:28:37.150Z,2.67
2017-11-28T03:31:08.384Z,3.67
2017-11-28T03:33:35.818Z,2.60
2017-11-28T03:36:03.268Z,2.35
2017-11-28T03:38:30.754Z,2.20
2017-11-28T03:40:58.194Z,2.10
2017-11-28T03:43:25.745Z,2.45
2017-11-28T03:45:57.123Z,1.60
2017-11-28T03:48:24.570Z,4.05
2017-11-28T03:50:52.011Z,1.70
2017-11-28T03:53:19.482Z,7.32
2017-11-28T03:55:46.934Z,2.75
2017-11-28T03:58:14.378Z,1.50
2017-11-28T04:00:41.933Z,1.40
2017-11-28T04:03:09.384Z,2.45
2017-11-28T04:05:36.870Z,1.48
2017-11-28T04:08:04.327Z,3.10
2017-11-28T04:10:31.771Z,4.32
2017-11-28T04:12:59.227Z,5.25
2017-11-28T04:15:29.255Z,3.10
2017-11-28T04:17:56.707Z,2.65
2017-11-28T04:20:24.180Z,1.80
2017-11-28T04:22:51.725Z,7.50
2017-11-28T04:25:19.174Z,1.77
2017-11-28T04:27:46.626Z,2.95
2017-11-28T04:30:14.075Z,2.20
2017-11-28T04:32:42.323Z,2.17
2017-11-28T04:35:11.514Z,2.58
2017-11-28T04:37:39.736Z,4.40
2017-11-28T04:40:07.173Z,2.55
2017-11-28T04:42:34.674Z,3.05
2017-11-28T04:45:02.116Z,1.45
2017-11-28T04:47:29.678Z,3.47
2017-11-28T04:49:57.118Z,1.85
2017-11-28T04:52:24.598Z,7.62
2017-11-28T04:54:52.052Z,2.72
2017-11-28T04:57:19.490Z,1.67
2017-11-28T04:59:46.958Z,1.80
2017-11-28T05:02:15.420Z,2.12
2017-11-28T05:04:42.899Z,1.33
2017-11-28T05:07:10.354Z,2.28
2017-11-28T05:09:37.798Z,3.08
2017-11-28T05:12:05.243Z,2.60
2017-11-28T05:14:32.701Z,1.70
2017-11-28T05:17:00.143Z,1.35
2017-11-28T05:19:27.647Z,1.55
2017-11-28T05:21:55.094Z,1.50
2017-11-28T05:24:22.550Z,1.60
2017-11-28T05:26:49.993Z,2.30
2017-11-28T05:29:17.459Z,1.37
2017-11-28T05:31:44.903Z,1.95
2017-11-28T05:34:12.354Z,2.95
2017-11-28T05:36:39.795Z,1.50
2017-11-28T05:39:07.247Z,4.10
2017-11-28T05:41:34.687Z,1.90
2017-11-28T05:44:02.910Z,1.52
2017-11-28T05:46:30.361Z,2.30
2017-11-28T05:48:57.807Z,2.97
2017-11-28T05:51:25.251Z,1.50
2017-11-28T05:53:52.751Z,1.45
2017-11-28T05:56:20.202Z,1.98
2017-11-28T05:58:47.766Z,2.60
2017-11-28T06:01:15.211Z,2.42
2017-11-28T06:03:42.663Z,3.65
2017-11-28T06:06:10.113Z,1.35
2017-11-28T06:08:37.561Z,2.58
2017-11-28T06:11:05.767Z,4.10
2017-11-28T06:13:33.227Z,3.60
2017-11-28T06:16:00.780Z,4.22
2017-11-28T06:18:28.239Z,1.85
2017-11-28T06:20:55.694Z,1.67
2017-11-28T06:23:23.139Z,1.75
2017-11-28T06:25:50.611Z,2.35
2017-11-28T06:28:18.052Z,1.90
2017-11-28T06:30:45.502Z,1.98
2017-11-28T06:33:12.980Z,2.65
2017-11-28T06:35:40.423Z,1.40
2017-11-28T06:38:07.862Z,1.73
2017-11-28T06:40:35.346Z,2.35
2017-11-28T06:43:02.791Z,1.92
2017-11-28T06:45:30.247Z,2.75
2017-11-28T06:47:57.734Z,11.32
2017-11-28T06:50:25.193Z,1.60
2017-11-28T06:52:52.627Z,1.95
2017-11-28T06:55:20.086Z,3.25
2017-11-28T06:57:47.646Z,1.90
2017-11-28T07:00:15.104Z,1.90
2017-11-28T07:02:42.545Z,1.70
2017-11-28T07:05:10.003Z,1.30
2017-11-28T07:07:37.443Z,2.03
2017-11-28T07:10:04.933Z,1.40
2017-11-28T07:12:32.373Z,4.40
2017-11-28T07:14:59.815Z,1.77
2017-11-28T07:17:28.151Z,1.85
2017-11-28T07:19:56.367Z,3.40
2017-11-28T07:22:23.824Z,1.50
2017-11-28T07:24:51.267Z,1.70
2017-11-28T07:27:18.780Z,1.35
2017-11-28T07:29:46.216Z,1.55
2017-11-28T07:32:13.854Z,1.37
2017-11-28T07:34:41.297Z,1.58
2017-11-28T07:37:08.803Z,1.60
2017-11-28T07:39:36.262Z,1.80
2017-11-28T07:42:03.699Z,1.35
2017-11-28T07:44:31.151Z,3.58
2017-11-28T07:46:58.594Z,1.50
2017-11-28T07:49:26.040Z,1.10
2017-11-28T07:51:53.493Z,1.20
2017-11-28T07:54:20.943Z,1.10
2017-11-28T07:56:48.395Z,3.85
2017-11-28T07:59:16.601Z,1.17
2017-11-28T08:01:44.068Z,1.08
2017-11-28T08:04:11.499Z,0.77
2017-11-28T08:06:38.951Z,1.40
2017-11-28T08:09:06.394Z,1.70
2017-11-28T08:11:34.736Z,1.17
2017-11-28T08:14:02.186Z,0.90
2017-11-28T08:16:29.630Z,0.90
2017-11-28T08:18:57.080Z,0.98
2017-11-28T08:21:24.538Z,0.95
2017-11-28T08:23:51.979Z,0.90
2017-11-28T08:26:19.439Z,0.95
2017-11-28T08:28:46.883Z,1.00
2017-11-28T08:31:14.322Z,1.00
2017-11-28T08:33:42.539Z,0.90
2017-11-28T08:36:09.991Z,1.37
2017-11-28T08:38:37.438Z,1.42
2017-11-28T08:41:04.878Z,1.15
2017-11-28T08:43:32.338Z,1.20
2017-11-28T08:45:59.775Z,1.12
2017-11-28T08:48:27.994Z,1.23
2017-11-28T08:50:55.439Z,1.02
2017-11-28T08:53:22.894Z,0.98
2017-11-28T08:55:50.337Z,1.50
2017-11-28T08:58:17.794Z,0.88
2017-11-28T09:00:45.294Z,0.75
2017-11-28T09:03:12.855Z,0.85
2017-11-28T09:05:40.307Z,1.10
2017-11-28T09:08:07.757Z,0.90
2017-11-28T09:10:35.203Z,1.10
2017-11-28T09:13:02.653Z,0.88
2017-11-28T09:15:30.132Z,0.80
2017-11-28T09:17:57.587Z,1.10
2017-11-28T09:20:25.028Z,2.40
2017-11-28T09:22:52.482Z,1.10
2017-11-28T09:25:19.971Z,1.02
2017-11-28T09:27:47.414Z,2.40
2017-11-28T09:30:14.891Z,1.20
2017-11-28T09:32:42.339Z,0.88
2017-11-28T09:35:09.782Z,0.90
2017-11-28T09:37:37.235Z,1.00
2017-11-28T09:40:04.678Z,1.15
2017-11-28T09:42:32.159Z,1.08
2017-11-28T09:44:59.598Z,1.02
2017-11-28T09:47:27.047Z,1.15
2017-11-28T09:49:54.499Z,1.92
2017-11-28T09:52:21.987Z,1.62
2017-11-28T09:54:49.443Z,2.15
2017-11-28T09:57:16.883Z,1.27
2017-11-28T09:59:44.332Z,1.20
2017-11-28T10:02:11.814Z,1.30
2017-11-28T10:04:39.275Z,1.33
2017-11-28T10:07:06.714Z,1.10
2017-11-28T10:09:34.170Z,1.27
2017-11-28T10:12:01.609Z,0.80
2017-11-28T10:14:29.076Z,1.20
2017-11-28T10:16:56.523Z,1.20
2017-11-28T10:19:23.979Z,5.28
2017-11-28T10:21:51.469Z,1.70
2017-11-28T10:24:19.035Z,1.00
2017-11-28T10:26:46.479Z,0.90
2017-11-28T10:29:13.931Z,8.88
2017-11-28T10:31:41.384Z,2.75
2017-11-28T10:34:08.855Z,1.70
2017-11-28T10:36:36.411Z,1.80
2017-11-28T10:39:03.870Z,0.80
2017-11-28T10:41:31.311Z,1.37
2017-11-28T10:43:58.771Z,0.90
2017-11-28T10:46:26.211Z,2.10
2017-11-28T10:48:53.664Z,1.00
2017-11-28T10:51:21.160Z,0.90
2017-11-28T10:53:48.606Z,0.93
2017-11-28T10:56:16.167Z,3.65
2017-11-28T10:58:43.611Z,2.12
2017-11-28T11:01:11.083Z,1.00
2017-11-28T11:03:38.550Z,0.90
2017-11-28T11:06:05.987Z,1.20
2017-11-28T11:08:33.450Z,0.80
2017-11-28T11:11:00.916Z,0.80
2017-11-28T11:13:28.419Z,1.05
2017-11-28T11:15:55.866Z,1.23
2017-11-28T11:18:24.096Z,0.77
2017-11-28T11:20:51.550Z,1.40
2017-11-28T11:23:19.002Z,1.00
2017-11-28T11:25:46.467Z,2.08
2017-11-28T11:28:14.026Z,1.20
2017-11-28T11:30:41.486Z,3.03
2017-11-28T11:33:08.931Z,0.90
2017-11-28T11:35:36.409Z,0.70
2017-11-28T11:38:03.847Z,0.85
2017-11-28T11:40:31.298Z,0.80
2017-11-28T11:42:58.750Z,0.90
2017-11-28T11:45:26.208Z,1.00
2017-11-28T11:47:53.658Z,0.90
2017-11-28T11:50:21.108Z,2.15
2017-11-28T11:52:48.566Z,1.00
2017-11-28T11:55:16.021Z,1.67
2017-11-28T11:57:43.519Z,1.00
2017-11-28T12:00:10.966Z,2.45
2017-11-28T12:02:38.410Z,0.95
2017-11-28T12:05:05.859Z,1.20
2017-11-28T12:07:33.308Z,1.00
2017-11-28T12:10:00.747Z,1.45
2017-11-28T12:12:28.246Z,1.08
2017-11-28T12:14:55.716Z,1.30
2017-11-28T12:17:23.160Z,5.80
2017-11-28T12:19:50.615Z,1.20
2017-11-28T12:22:18.072Z,1.45
2017-11-28T12:24:45.516Z,2.22
2017-11-28T12:27:12.990Z,3.28
2017-11-28T12:29:40.547Z,0.85
2017-11-28T12:32:08.104Z,1.00
2017-11-28T12:34:35.554Z,1.70
2017-11-28T12:37:03.011Z,2.08
2017-11-28T12:39:30.483Z,1.20
2017-11-28T12:41:57.939Z,1.75
2017-11-28T12:44:25.382Z,1.00
2017-11-28T12:46:52.831Z,3.60
2017-11-28T12:49:20.275Z,1.30
2017-11-28T12:51:47.731Z,0.98
2017-11-28T12:54:15.176Z,1.00
2017-11-28T12:56:42.669Z,1.40
2017-11-28T12:59:10.127Z,2.92
2017-11-28T13:01:37.674Z,1.20
2017-11-28T13:04:05.124Z,2.10
2017-11-28T13:06:32.579Z,1.35
2017-11-28T13:09:00.018Z,2.12
2017-11-28T13:11:27.462Z,1.50
2017-11-28T13:13:54.909Z,1.15
2017-11-28T13:16:23.129Z,1.40
2017-11-28T13:18:50.575Z,0.90
2017-11-28T13:21:18.021Z,1.45
2017-11-28T13:23:45.464Z,1.85
2017-11-28T13:26:12.970Z,2.22
2017-11-28T13:28:40.529Z,1.65
2017-11-28T13:31:07.986Z,5.40
2017-11-28T13:33:35.443Z,2.47
2017-11-28T13:36:02.887Z,1.08
2017-11-28T13:38:30.337Z,2.20
2017-11-28T13:40:57.784Z,2.60
2017-11-28T13:43:25.244Z,1.67
2017-11-28T13:45:52.685Z,1.60
2017-11-28T13:48:20.139Z,2.25
2017-11-28T13:50:47.583Z,2.30
2017-11-28T13:53:15.799Z,3.17
2017-11-28T13:55:43.274Z,1.00
2017-11-28T13:58:10.725Z,1.20
2017-11-28T14:00:38.171Z,1.30
2017-11-28T14:03:05.623Z,4.55
2017-11-28T14:05:33.070Z,13.65
2017-11-28T14:08:00.530Z,2.28
2017-11-28T14:10:27.971Z,3.58
2017-11-28T14:12:55.423Z,1.85
2017-11-28T14:15:22.866Z,1.60
2017-11-28T14:17:51.088Z,1.50
2017-11-28T14:20:35.384Z,2.08
2017-11-28T14:23:08.494Z,10.52
2017-11-28T14:25:39.594Z,3.37
2017-11-28T14:28:07.046Z,1.12
2017-11-28T14:30:45.324Z,1.20
2017-11-28T14:33:13.721Z,1.67
2017-11-28T14:35:56.034Z,1.70
2017-11-28T14:38:23.490Z,1.80
2017-11-28T14:40:50.934Z,1.52
2017-11-28T14:43:22.378Z,1.50
2017-11-28T14:45:55.375Z,2.50
2017-11-28T14:48:22.832Z,3.78
2017-11-28T14:50:55.991Z,10.30
2017-11-28T14:53:23.472Z,7.40
2017-11-28T14:55:53.542Z,12.82
2017-11-28T14:58:37.519Z,4.95
2017-11-28T15:01:06.424Z,5.15
2017-11-28T15:03:39.575Z,3.35
2017-11-28T15:06:13.459Z,8.45
2017-11-28T15:08:46.538Z,14.20
2017-11-28T15:11:19.619Z,10.20
2017-11-28T15:13:52.639Z,4.47
2017-11-28T15:16:26.602Z,2.15
2017-11-28T15:19:06.551Z,13.88
2017-11-28T15:21:39.419Z,2.15
2017-11-28T15:24:10.304Z,5.68
2017-11-28T15:26:38.540Z,2.47
2017-11-28T15:29:24.666Z,2.05
2017-11-28T15:31:52.114Z,2.78
2017-11-28T15:34:19.559Z,4.55
2017-11-28T15:36:47.004Z,3.85
2017-11-28T15:39:14.570Z,9.13
2017-11-28T15:41:42.022Z,3.70
2017-11-28T15:44:09.462Z,4.87
2017-11-28T15:46:36.931Z,6.95
2017-11-28T15:49:04.406Z,2.80
2017-11-28T15:51:31.963Z,3.15
2017-11-28T15:53:59.403Z,2.22
2017-11-28T15:56:26.862Z,1.33
2017-11-28T15:58:54.335Z,1.55
2017-11-28T16:01:21.890Z,3.15
2017-11-28T16:03:49.343Z,2.60
2017-11-28T16:06:16.795Z,1.48
2017-11-28T16:08:44.240Z,2.33
2017-11-28T16:11:11.699Z,2.17
2017-11-28T16:13:39.140Z,2.55
2017-11-28T16:16:06.607Z,4.82
2017-11-28T16:18:34.088Z,5.82
2017-11-28T16:21:01.542Z,4.95
2017-11-28T16:23:28.990Z,7.55
2017-11-28T16:25:56.442Z,6.82
2017-11-28T16:28:23.888Z,2.45
2017-11-28T16:30:51.335Z,3.85
2017-11-28T16:33:18.787Z,4.72
2017-11-28T16:35:46.239Z,1.50
2017-11-28T16:38:13.686Z,1.30
2017-11-28T16:40:41.894Z,1.50
2017-11-28T16:43:09.345Z,4.03
2017-11-28T16:45:36.800Z,1.10
2017-11-28T16:48:04.247Z,1.30
2017-11-28T16:50:31.742Z,2.92
2017-11-28T16:52:59.186Z,1.55
2017-11-28T16:55:26.635Z,2.80
2017-11-28T16:57:54.117Z,6.30
2017-11-28T17:00:21.558Z,3.12
2017-11-28T17:02:49.015Z,2.90
2017-11-28T17:05:16.467Z,5.30
2017-11-28T17:07:43.918Z,3.05
2017-11-28T17:10:11.381Z,2.85
2017-11-28T17:12:38.827Z,3.67
2017-11-28T17:15:06.267Z,5.03
2017-11-28T17:17:33.714Z,3.35
2017-11-28T17:20:01.925Z,3.55
2017-11-28T17:22:29.374Z,2.45
2017-11-28T17:24:56.826Z,2.97
2017-11-28T17:27:24.273Z,7.30
2017-11-28T17:29:51.776Z,8.40
2017-11-28T17:32:19.241Z,7.25
2017-11-28T17:34:46.686Z,4.28
2017-11-28T17:37:14.140Z,4.00
2017-11-28T17:39:41.588Z,5.78
2017-11-28T17:42:09.041Z,6.85
2017-11-28T17:44:36.496Z,13.43
2017-11-28T17:47:03.956Z,6.35
2017-11-28T17:49:31.396Z,5.82
2017-11-28T17:51:58.878Z,9.20
2017-11-28T17:54:26.326Z,8.18
2017-11-28T17:56:53.774Z,6.95
2017-11-28T17:59:21.223Z,7.18
2017-11-28T18:01:48.671Z,5.95
2017-11-28T18:04:16.115Z,5.45
2017-11-28T18:06:43.563Z,5.15
2017-11-28T18:09:11.788Z,3.97
2017-11-28T18:11:39.228Z,4.40
2017-11-28T18:14:06.691Z,3.90
2017-11-28T18:16:34.134Z,4.35
2017-11-28T18:19:01.692Z,4.05
2017-11-28T18:21:29.127Z,5.07
2017-11-28T18:23:56.574Z,8.50
2017-11-28T18:26:24.814Z,7.18
2017-11-28T18:28:52.265Z,7.12
2017-11-28T18:31:19.703Z,4.15
2017-11-28T18:33:47.150Z,6.22
2017-11-28T18:36:14.600Z,7.60
2017-11-28T18:38:42.090Z,13.32
2017-11-28T18:41:09.535Z,6.18
2017-11-28T18:43:37.114Z,11.07
2017-11-28T18:46:04.667Z,10.63
2017-11-28T18:48:32.224Z,7.55
2017-11-28T18:50:59.665Z,8.18
2017-11-28T18:53:27.121Z,4.60
2017-11-28T18:55:54.567Z,3.85
2017-11-28T18:58:22.024Z,5.15
2017-11-28T19:00:49.473Z,5.00
2017-11-28T19:03:16.966Z,6.22
2017-11-28T19:05:44.412Z,5.75
2017-11-28T19:08:11.857Z,5.50
2017-11-28T19:10:39.304Z,4.72
2017-11-28T19:13:06.791Z,4.32
2017-11-28T19:15:34.247Z,3.85
2017-11-28T19:18:01.702Z,4.20
2017-11-28T19:20:29.166Z,4.45
2017-11-28T19:22:56.602Z,4.43
2017-11-28T19:25:24.065Z,3.50
2017-11-28T19:27:51.517Z,6.60
2017-11-28T19:30:18.995Z,5.05
2017-11-28T19:32:46.542Z,5.25
2017-11-28T19:35:14.001Z,4.90
2017-11-28T19:37:41.446Z,7.10
2017-11-28T19:40:08.899Z,7.95
2017-11-28T19:42:36.341Z,5.80
2017-11-28T19:45:03.789Z,6.97
2017-11-28T19:47:31.231Z,8.15
2017-11-28T19:49:59.457Z,5.97
2017-11-28T19:52:26.911Z,6.25
2017-11-28T19:54:54.357Z,4.97
2017-11-28T19:57:21.803Z,8.02
2017-11-28T19:59:49.261Z,3.95
2017-11-28T20:02:16.747Z,5.93
2017-11-28T20:04:44.195Z,4.35
2017-11-28T20:07:11.638Z,4.40
2017-11-28T20:09:39.115Z,3.72
2017-11-28T20:12:06.554Z,4.30
2017-11-28T20:14:34.010Z,3.70
2017-11-28T20:17:01.454Z,4.12
2017-11-28T20:19:28.911Z,4.05
2017-11-28T20:21:56.353Z,4.68
2017-11-28T20:24:23.803Z,5.40
2017-11-28T20:26:51.998Z,5.30
2017-11-28T20:29:19.459Z,4.20
2017-11-28T20:31:46.938Z,4.97
2017-11-28T20:34:14.395Z,6.70
2017-11-28T20:36:41.831Z,4.15
2017-11-28T20:39:09.300Z,6.97
2017-11-28T20:41:36.744Z,5.57
2017-11-28T20:44:04.182Z,5.75
2017-11-28T20:46:31.634Z,3.70
2017-11-28T20:49:04.762Z,2.87
2017-11-28T20:51:32.329Z,2.83
2017-11-28T20:53:59.770Z,2.45
2017-11-28T20:56:27.342Z,3.62
2017-11-28T20:58:54.786Z,2.20
2017-11-28T21:01:22.258Z,2.78
2017-11-28T21:03:49.719Z,2.75
2017-11-28T21:06:17.145Z,3.10
2017-11-28T21:08:44.626Z,2.37
2017-11-28T21:11:12.079Z,3.37
2017-11-28T21:13:39.515Z,2.53
2017-11-28T21:16:06.973Z,3.60
2017-11-28T21:18:34.412Z,3.15
2017-11-28T21:21:01.862Z,2.58
2017-11-28T21:23:29.379Z,3.58
2017-11-28T21:25:56.896Z,2.53
2017-11-28T21:28:24.459Z,2.72
2017-11-28T21:30:51.943Z,2.60
2017-11-28T21:33:19.501Z,2.85
2017-11-28T21:35:47.064Z,2.60
2017-11-28T21:38:14.504Z,2.00
2017-11-28T21:40:41.968Z,2.30
2017-11-28T21:43:09.421Z,2.50
2017-11-28T21:45:36.938Z,3.87
2017-11-28T21:48:04.342Z,5.05
2017-11-28T21:50:31.787Z,7.78
2017-11-28T21:52:59.238Z,8.35
2017-11-28T21:55:26.684Z,8.32
2017-11-28T21:57:54.140Z,6.85
2017-11-28T22:02:39.211Z,8.13
2017-11-28T22:05:06.706Z,10.27
2017-11-28T22:07:34.159Z,8.40
2017-11-28T22:10:01.603Z,8.10
2017-11-28T22:12:29.063Z,8.13
2017-11-28T22:14:56.508Z,8.65
2017-11-28T22:17:23.962Z,7.53
2017-11-28T22:19:51.426Z,7.53
2017-11-28T22:22:18.856Z,8.40
2017-11-28T22:24:46.298Z,8.70
2017-11-28T22:27:14.527Z,8.40
2017-11-28T22:29:41.975Z,7.85
2017-11-28T22:32:09.426Z,6.82
2017-11-28T22:34:36.901Z,8.40
2017-11-28T22:37:04.354Z,7.90
2017-11-28T22:39:31.820Z,5.80
2017-11-28T22:41:59.271Z,6.28
2017-11-28T22:44:26.715Z,5.97
2017-11-28T22:46:54.194Z,6.18
2017-11-28T22:49:21.642Z,5.97
2017-11-28T22:51:49.074Z,5.45
2017-11-28T22:54:16.529Z,6.10
2017-11-28T22:56:43.962Z,3.90
2017-11-28T22:59:11.466Z,6.87
2017-11-28T23:01:38.919Z,3.40
2017-11-28T23:04:06.368Z,2.60
2017-11-28T23:06:33.811Z,4.68
2017-11-28T23:09:01.268Z,2.10
2017-11-28T23:11:28.766Z,2.30
2017-11-28T23:14:00.930Z,2.40
2017-11-28T23:16:28.991Z,2.75
2017-11-28T23:18:56.445Z,3.12
2017-11-28T23:21:23.896Z,3.95
2017-11-28T23:23:51.351Z,3.85
2017-11-28T23:26:18.823Z,2.72
2017-11-28T23:28:46.368Z,2.70
2017-11-28T23:31:13.856Z,2.67
2017-11-28T23:33:41.398Z,2.45
2017-11-28T23:36:08.839Z,3.35
2017-11-28T23:38:36.295Z,4.07
2017-11-28T23:41:03.766Z,4.03
2017-11-28T23:43:31.218Z,4.00
2017-11-28T23:45:58.665Z,3.00
2017-11-28T23:48:26.119Z,2.60
2017-11-28T23:50:53.563Z,3.00
2017-11-28T23:53:21.018Z,3.17
2017-11-28T23:55:48.507Z,2.10
2017-11-28T23:58:15.959Z,2.40
